sensor_id;sensor_type;location;lat;lon;timestamp;temperature;humidity
44863;DHT22;30597;49.628;10.850;2022-08-25T00:00:58;25.70;53.40
44863;DHT22;30597;49.628;10.850;2022-08-25T00:03:24;25.70;53.60
44863;DHT22;30597;49.628;10.850;2022-08-25T00:05:50;25.70;53.50
44863;DHT22;30597;49.628;10.850;2022-08-25T00:08:15;25.70;53.50
44863;DHT22;30597;49.628;10.850;2022-08-25T00:10:41;25.70;53.50
44863;DHT22;30597;49.628;10.850;2022-08-25T00:13:07;25.70;53.50
44863;DHT22;30597;49.628;10.850;2022-08-25T00:15:33;25.70;53.50
44863;DHT22;30597;49.628;10.850;2022-08-25T00:17:59;25.70;53.60
44863;DHT22;30597;49.628;10.850;2022-08-25T00:20:26;25.70;53.60
44863;DHT22;30597;49.628;10.850;2022-08-25T00:22:52;25.70;53.50
44863;DHT22;30597;49.628;10.850;2022-08-25T00:25:18;25.70;53.50
44863;DHT22;30597;49.628;10.850;2022-08-25T00:27:44;25.70;53.50
44863;DHT22;30597;49.628;10.850;2022-08-25T00:30:10;25.70;53.50
44863;DHT22;30597;49.628;10.850;2022-08-25T00:32:39;25.70;53.50
44863;DHT22;30597;49.628;10.850;2022-08-25T00:35:04;25.70;53.50
44863;DHT22;30597;49.628;10.850;2022-08-25T00:37:30;25.70;53.50
44863;DHT22;30597;49.628;10.850;2022-08-25T00:39:56;25.70;53.50
44863;DHT22;30597;49.628;10.850;2022-08-25T00:42:24;25.70;53.60
44863;DHT22;30597;49.628;10.850;2022-08-25T00:44:50;25.70;53.60
44863;DHT22;30597;49.628;10.850;2022-08-25T00:47:16;25.60;53.60
44863;DHT22;30597;49.628;10.850;2022-08-25T00:49:45;25.60;53.60
44863;DHT22;30597;49.628;10.850;2022-08-25T00:52:21;25.60;53.70
44863;DHT22;30597;49.628;10.850;2022-08-25T00:54:57;25.60;53.60
44863;DHT22;30597;49.628;10.850;2022-08-25T00:57:27;25.60;53.60
44863;DHT22;30597;49.628;10.850;2022-08-25T00:59:54;25.60;53.80
44863;DHT22;30597;49.628;10.850;2022-08-25T01:02:20;25.60;53.80
44863;DHT22;30597;49.628;10.850;2022-08-25T01:04:46;25.60;53.80
44863;DHT22;30597;49.628;10.850;2022-08-25T01:07:13;25.60;53.80
44863;DHT22;30597;49.628;10.850;2022-08-25T01:09:39;25.60;53.80
44863;DHT22;30597;49.628;10.850;2022-08-25T01:12:06;25.60;53.80
44863;DHT22;30597;49.628;10.850;2022-08-25T01:14:33;25.60;53.80
44863;DHT22;30597;49.628;10.850;2022-08-25T01:16:59;25.60;53.90
44863;DHT22;30597;49.628;10.850;2022-08-25T01:19:26;25.60;53.90
44863;DHT22;30597;49.628;10.850;2022-08-25T01:21:53;25.60;53.90
44863;DHT22;30597;49.628;10.850;2022-08-25T01:24:44;25.60;53.90
44863;DHT22;30597;49.628;10.850;2022-08-25T01:27:11;25.60;53.90
44863;DHT22;30597;49.628;10.850;2022-08-25T01:29:37;25.60;53.90
44863;DHT22;30597;49.628;10.850;2022-08-25T01:32:06;25.60;53.90
44863;DHT22;30597;49.628;10.850;2022-08-25T01:34:36;25.60;53.90
44863;DHT22;30597;49.628;10.850;2022-08-25T01:37:03;25.50;53.80
44863;DHT22;30597;49.628;10.850;2022-08-25T01:39:30;25.60;53.90
44863;DHT22;30597;49.628;10.850;2022-08-25T01:42:32;25.60;54.00
44863;DHT22;30597;49.628;10.850;2022-08-25T01:45:02;25.60;53.90
44863;DHT22;30597;49.628;10.850;2022-08-25T01:47:28;25.60;54.00
44863;DHT22;30597;49.628;10.850;2022-08-25T01:49:54;25.50;54.00
44863;DHT22;30597;49.628;10.850;2022-08-25T01:52:26;25.50;53.90
44863;DHT22;30597;49.628;10.850;2022-08-25T01:54:52;25.50;53.90
44863;DHT22;30597;49.628;10.850;2022-08-25T01:57:18;25.60;53.90
44863;DHT22;30597;49.628;10.850;2022-08-25T01:59:44;25.50;53.80
44863;DHT22;30597;49.628;10.850;2022-08-25T02:02:09;25.60;53.90
44863;DHT22;30597;49.628;10.850;2022-08-25T02:04:35;25.50;54.00
44863;DHT22;30597;49.628;10.850;2022-08-25T02:07:04;25.50;54.00
44863;DHT22;30597;49.628;10.850;2022-08-25T02:09:29;25.60;54.00
44863;DHT22;30597;49.628;10.850;2022-08-25T02:11:56;25.50;54.00
44863;DHT22;30597;49.628;10.850;2022-08-25T02:14:22;25.60;54.00
44863;DHT22;30597;49.628;10.850;2022-08-25T02:16:50;25.60;54.00
44863;DHT22;30597;49.628;10.850;2022-08-25T02:19:18;25.60;54.60
44863;DHT22;30597;49.628;10.850;2022-08-25T02:21:44;25.60;54.00
44863;DHT22;30597;49.628;10.850;2022-08-25T02:24:10;25.50;54.00
44863;DHT22;30597;49.628;10.850;2022-08-25T02:26:37;25.50;54.00
44863;DHT22;30597;49.628;10.850;2022-08-25T02:29:04;25.60;54.00
44863;DHT22;30597;49.628;10.850;2022-08-25T02:31:31;25.50;54.00
44863;DHT22;30597;49.628;10.850;2022-08-25T02:33:56;25.50;53.90
44863;DHT22;30597;49.628;10.850;2022-08-25T02:36:22;25.50;54.00
44863;DHT22;30597;49.628;10.850;2022-08-25T02:38:48;25.50;54.00
44863;DHT22;30597;49.628;10.850;2022-08-25T02:41:20;25.60;54.00
44863;DHT22;30597;49.628;10.850;2022-08-25T02:43:48;25.50;54.00
44863;DHT22;30597;49.628;10.850;2022-08-25T02:46:15;25.50;53.90
44863;DHT22;30597;49.628;10.850;2022-08-25T02:48:41;25.50;53.90
44863;DHT22;30597;49.628;10.850;2022-08-25T02:51:08;25.50;54.00
44863;DHT22;30597;49.628;10.850;2022-08-25T02:53:35;25.50;53.90
44863;DHT22;30597;49.628;10.850;2022-08-25T02:56:05;25.50;54.00
44863;DHT22;30597;49.628;10.850;2022-08-25T02:58:31;25.50;53.90
44863;DHT22;30597;49.628;10.850;2022-08-25T03:00:57;25.50;53.90
44863;DHT22;30597;49.628;10.850;2022-08-25T03:03:23;25.50;53.90
44863;DHT22;30597;49.628;10.850;2022-08-25T03:05:48;25.50;53.90
44863;DHT22;30597;49.628;10.850;2022-08-25T03:08:14;25.50;53.90
44863;DHT22;30597;49.628;10.850;2022-08-25T03:10:39;25.50;54.00
44863;DHT22;30597;49.628;10.850;2022-08-25T03:13:05;25.50;54.10
44863;DHT22;30597;49.628;10.850;2022-08-25T03:15:31;25.50;54.10
44863;DHT22;30597;49.628;10.850;2022-08-25T03:17:57;25.50;54.00
44863;DHT22;30597;49.628;10.850;2022-08-25T03:20:24;25.50;54.00
44863;DHT22;30597;49.628;10.850;2022-08-25T03:22:50;25.50;54.00
44863;DHT22;30597;49.628;10.850;2022-08-25T03:25:17;25.40;54.00
44863;DHT22;30597;49.628;10.850;2022-08-25T03:28:01;25.40;54.10
44863;DHT22;30597;49.628;10.850;2022-08-25T03:30:28;25.40;54.10
44863;DHT22;30597;49.628;10.850;2022-08-25T03:32:54;25.40;54.20
44863;DHT22;30597;49.628;10.850;2022-08-25T03:35:21;25.40;54.10
44863;DHT22;30597;49.628;10.850;2022-08-25T03:37:46;25.40;54.30
44863;DHT22;30597;49.628;10.850;2022-08-25T03:40:14;25.40;54.20
44863;DHT22;30597;49.628;10.850;2022-08-25T03:42:43;25.40;54.20
44863;DHT22;30597;49.628;10.850;2022-08-25T03:45:09;25.40;54.30
44863;DHT22;30597;49.628;10.850;2022-08-25T03:47:39;25.40;54.20
44863;DHT22;30597;49.628;10.850;2022-08-25T03:50:09;25.40;54.30
44863;DHT22;30597;49.628;10.850;2022-08-25T03:52:35;25.40;54.40
44863;DHT22;30597;49.628;10.850;2022-08-25T03:55:04;25.30;54.40
44863;DHT22;30597;49.628;10.850;2022-08-25T03:57:30;25.30;54.30
44863;DHT22;30597;49.628;10.850;2022-08-25T03:59:55;25.30;54.40
44863;DHT22;30597;49.628;10.850;2022-08-25T04:02:21;25.30;54.40
44863;DHT22;30597;49.628;10.850;2022-08-25T04:04:46;25.30;54.40
44863;DHT22;30597;49.628;10.850;2022-08-25T04:07:12;25.30;54.50
44863;DHT22;30597;49.628;10.850;2022-08-25T04:09:38;25.30;54.40
44863;DHT22;30597;49.628;10.850;2022-08-25T04:12:03;25.30;54.40
44863;DHT22;30597;49.628;10.850;2022-08-25T04:14:29;25.30;54.60
44863;DHT22;30597;49.628;10.850;2022-08-25T04:16:55;25.30;54.50
44863;DHT22;30597;49.628;10.850;2022-08-25T04:19:21;25.30;54.40
44863;DHT22;30597;49.628;10.850;2022-08-25T04:21:47;25.30;54.70
44863;DHT22;30597;49.628;10.850;2022-08-25T04:24:13;25.30;54.70
44863;DHT22;30597;49.628;10.850;2022-08-25T04:26:42;25.30;54.70
44863;DHT22;30597;49.628;10.850;2022-08-25T04:29:10;25.30;54.70
44863;DHT22;30597;49.628;10.850;2022-08-25T04:31:38;25.30;54.80
44863;DHT22;30597;49.628;10.850;2022-08-25T04:34:05;25.30;54.80
44863;DHT22;30597;49.628;10.850;2022-08-25T04:36:31;25.30;54.80
44863;DHT22;30597;49.628;10.850;2022-08-25T04:38:57;25.30;54.80
44863;DHT22;30597;49.628;10.850;2022-08-25T04:41:23;25.30;54.80
44863;DHT22;30597;49.628;10.850;2022-08-25T04:43:50;25.20;54.80
44863;DHT22;30597;49.628;10.850;2022-08-25T04:46:18;25.30;54.80
44863;DHT22;30597;49.628;10.850;2022-08-25T04:48:45;25.30;54.90
44863;DHT22;30597;49.628;10.850;2022-08-25T04:51:14;25.20;54.60
44863;DHT22;30597;49.628;10.850;2022-08-25T04:53:40;25.20;54.30
44863;DHT22;30597;49.628;10.850;2022-08-25T04:56:08;25.30;53.90
44863;DHT22;30597;49.628;10.850;2022-08-25T04:58:35;25.30;53.20
44863;DHT22;30597;49.628;10.850;2022-08-25T05:01:03;25.30;53.10
44863;DHT22;30597;49.628;10.850;2022-08-25T05:03:29;25.30;53.10
44863;DHT22;30597;49.628;10.850;2022-08-25T05:05:55;25.40;52.90
44863;DHT22;30597;49.628;10.850;2022-08-25T05:08:21;25.30;52.80
44863;DHT22;30597;49.628;10.850;2022-08-25T05:10:46;25.30;52.60
44863;DHT22;30597;49.628;10.850;2022-08-25T05:13:12;25.30;52.40
44863;DHT22;30597;49.628;10.850;2022-08-25T05:15:37;25.20;52.30
44863;DHT22;30597;49.628;10.850;2022-08-25T05:18:18;25.30;52.10
44863;DHT22;30597;49.628;10.850;2022-08-25T05:20:45;25.30;52.30
44863;DHT22;30597;49.628;10.850;2022-08-25T05:23:11;25.20;51.80
44863;DHT22;30597;49.628;10.850;2022-08-25T05:25:36;25.20;52.10
44863;DHT22;30597;49.628;10.850;2022-08-25T05:28:03;25.20;52.20
44863;DHT22;30597;49.628;10.850;2022-08-25T05:30:28;25.20;52.00
44863;DHT22;30597;49.628;10.850;2022-08-25T05:32:54;25.30;52.00
44863;DHT22;30597;49.628;10.850;2022-08-25T05:35:19;25.30;51.90
44863;DHT22;30597;49.628;10.850;2022-08-25T05:37:46;25.20;52.50
44863;DHT22;30597;49.628;10.850;2022-08-25T05:40:12;25.20;52.50
44863;DHT22;30597;49.628;10.850;2022-08-25T05:42:38;25.20;52.10
44863;DHT22;30597;49.628;10.850;2022-08-25T05:45:04;25.20;52.10
44863;DHT22;30597;49.628;10.850;2022-08-25T05:47:31;25.20;52.10
44863;DHT22;30597;49.628;10.850;2022-08-25T05:49:56;25.20;52.10
44863;DHT22;30597;49.628;10.850;2022-08-25T05:52:22;25.10;52.30
44863;DHT22;30597;49.628;10.850;2022-08-25T05:54:48;25.10;52.30
44863;DHT22;30597;49.628;10.850;2022-08-25T05:57:14;25.10;52.30
44863;DHT22;30597;49.628;10.850;2022-08-25T05:59:39;25.10;52.30
44863;DHT22;30597;49.628;10.850;2022-08-25T06:02:05;25.10;52.30
44863;DHT22;30597;49.628;10.850;2022-08-25T06:04:49;25.10;52.40
44863;DHT22;30597;49.628;10.850;2022-08-25T06:07:15;25.10;52.40
44863;DHT22;30597;49.628;10.850;2022-08-25T06:09:41;25.10;52.40
44863;DHT22;30597;49.628;10.850;2022-08-25T06:12:07;25.00;52.30
44863;DHT22;30597;49.628;10.850;2022-08-25T06:14:33;25.10;52.30
44863;DHT22;30597;49.628;10.850;2022-08-25T06:16:58;25.10;52.30
44863;DHT22;30597;49.628;10.850;2022-08-25T06:19:25;25.10;52.30
44863;DHT22;30597;49.628;10.850;2022-08-25T06:21:55;25.10;52.30
44863;DHT22;30597;49.628;10.850;2022-08-25T06:24:22;25.10;52.30
44863;DHT22;30597;49.628;10.850;2022-08-25T06:26:48;25.10;52.30
44863;DHT22;30597;49.628;10.850;2022-08-25T06:29:13;25.10;52.30
44863;DHT22;30597;49.628;10.850;2022-08-25T06:31:39;25.10;52.20
44863;DHT22;30597;49.628;10.850;2022-08-25T06:34:05;25.10;52.20
44863;DHT22;30597;49.628;10.850;2022-08-25T06:36:31;25.10;52.30
44863;DHT22;30597;49.628;10.850;2022-08-25T06:38:57;25.10;52.20
44863;DHT22;30597;49.628;10.850;2022-08-25T06:41:23;25.10;52.20
44863;DHT22;30597;49.628;10.850;2022-08-25T06:43:49;25.10;52.10
44863;DHT22;30597;49.628;10.850;2022-08-25T06:46:21;25.10;52.10
44863;DHT22;30597;49.628;10.850;2022-08-25T06:48:48;25.10;52.10
44863;DHT22;30597;49.628;10.850;2022-08-25T06:51:15;25.10;52.10
44863;DHT22;30597;49.628;10.850;2022-08-25T06:53:43;25.10;52.00
44863;DHT22;30597;49.628;10.850;2022-08-25T06:56:09;25.20;52.10
44863;DHT22;30597;49.628;10.850;2022-08-25T06:58:35;25.20;52.10
44863;DHT22;30597;49.628;10.850;2022-08-25T07:01:09;25.20;52.10
44863;DHT22;30597;49.628;10.850;2022-08-25T07:03:35;25.20;51.90
44863;DHT22;30597;49.628;10.850;2022-08-25T07:06:01;25.20;51.90
44863;DHT22;30597;49.628;10.850;2022-08-25T07:08:26;25.20;51.90
44863;DHT22;30597;49.628;10.850;2022-08-25T07:10:52;25.20;51.90
44863;DHT22;30597;49.628;10.850;2022-08-25T07:13:17;25.20;51.90
44863;DHT22;30597;49.628;10.850;2022-08-25T07:15:43;25.20;51.80
44863;DHT22;30597;49.628;10.850;2022-08-25T07:18:09;25.20;51.80
44863;DHT22;30597;49.628;10.850;2022-08-25T07:20:37;25.20;51.80
44863;DHT22;30597;49.628;10.850;2022-08-25T07:23:05;25.20;51.80
44863;DHT22;30597;49.628;10.850;2022-08-25T07:25:31;25.20;51.70
44863;DHT22;30597;49.628;10.850;2022-08-25T07:27:57;25.20;51.70
44863;DHT22;30597;49.628;10.850;2022-08-25T07:30:23;25.20;51.70
44863;DHT22;30597;49.628;10.850;2022-08-25T07:32:48;25.30;51.70
44863;DHT22;30597;49.628;10.850;2022-08-25T07:35:14;25.30;51.70
44863;DHT22;30597;49.628;10.850;2022-08-25T07:37:43;25.30;51.60
44863;DHT22;30597;49.628;10.850;2022-08-25T07:40:13;25.30;51.60
44863;DHT22;30597;49.628;10.850;2022-08-25T07:42:39;25.30;51.60
44863;DHT22;30597;49.628;10.850;2022-08-25T07:45:05;25.30;51.40
44863;DHT22;30597;49.628;10.850;2022-08-25T07:47:31;25.30;51.40
44863;DHT22;30597;49.628;10.850;2022-08-25T07:49:57;25.30;51.40
44863;DHT22;30597;49.628;10.850;2022-08-25T07:52:23;25.30;51.40
44863;DHT22;30597;49.628;10.850;2022-08-25T07:54:48;25.40;51.40
44863;DHT22;30597;49.628;10.850;2022-08-25T07:57:14;25.40;51.30
44863;DHT22;30597;49.628;10.850;2022-08-25T07:59:40;25.40;51.30
44863;DHT22;30597;49.628;10.850;2022-08-25T08:02:11;25.30;51.30
44863;DHT22;30597;49.628;10.850;2022-08-25T08:04:37;25.40;51.30
44863;DHT22;30597;49.628;10.850;2022-08-25T08:07:03;25.40;51.30
44863;DHT22;30597;49.628;10.850;2022-08-25T08:09:29;25.40;51.20
44863;DHT22;30597;49.628;10.850;2022-08-25T08:11:55;25.50;51.30
44863;DHT22;30597;49.628;10.850;2022-08-25T08:14:22;25.50;51.20
44863;DHT22;30597;49.628;10.850;2022-08-25T08:16:47;25.50;51.20
44863;DHT22;30597;49.628;10.850;2022-08-25T08:19:14;25.50;51.10
44863;DHT22;30597;49.628;10.850;2022-08-25T08:21:40;25.50;51.00
44863;DHT22;30597;49.628;10.850;2022-08-25T08:24:06;25.50;51.00
44863;DHT22;30597;49.628;10.850;2022-08-25T08:26:31;25.50;51.00
44863;DHT22;30597;49.628;10.850;2022-08-25T08:28:57;25.50;51.00
44863;DHT22;30597;49.628;10.850;2022-08-25T08:31:24;25.50;51.10
44863;DHT22;30597;49.628;10.850;2022-08-25T08:33:52;25.50;51.10
44863;DHT22;30597;49.628;10.850;2022-08-25T08:36:18;25.50;51.10
44863;DHT22;30597;49.628;10.850;2022-08-25T08:38:45;25.60;51.10
44863;DHT22;30597;49.628;10.850;2022-08-25T08:41:20;25.60;51.10
44863;DHT22;30597;49.628;10.850;2022-08-25T08:52:08;25.60;50.70
44863;DHT22;30597;49.628;10.850;2022-08-25T08:54:38;25.60;50.80
44863;DHT22;30597;49.628;10.850;2022-08-25T08:57:18;25.60;50.80
44863;DHT22;30597;49.628;10.850;2022-08-25T08:59:49;25.60;50.90
44863;DHT22;30597;49.628;10.850;2022-08-25T09:02:32;25.60;50.80
44863;DHT22;30597;49.628;10.850;2022-08-25T09:05:07;25.60;50.80
44863;DHT22;30597;49.628;10.850;2022-08-25T09:07:57;25.60;50.70
44863;DHT22;30597;49.628;10.850;2022-08-25T09:10:31;25.60;50.70
44863;DHT22;30597;49.628;10.850;2022-08-25T09:13:10;25.60;50.80
44863;DHT22;30597;49.628;10.850;2022-08-25T09:16:01;25.60;50.70
44863;DHT22;30597;49.628;10.850;2022-08-25T09:25:14;25.60;50.70
44863;DHT22;30597;49.628;10.850;2022-08-25T09:30:38;25.60;50.70
44863;DHT22;30597;49.628;10.850;2022-08-25T09:33:08;25.60;50.70
44863;DHT22;30597;49.628;10.850;2022-08-25T09:35:38;25.60;50.70
44863;DHT22;30597;49.628;10.850;2022-08-25T09:38:07;25.60;50.60
44863;DHT22;30597;49.628;10.850;2022-08-25T09:40:38;25.60;50.60
44863;DHT22;30597;49.628;10.850;2022-08-25T09:44:02;25.60;50.60
44863;DHT22;30597;49.628;10.850;2022-08-25T09:46:15;25.60;50.50
44863;DHT22;30597;49.628;10.850;2022-08-25T09:51:19;25.60;50.50
44863;DHT22;30597;49.628;10.850;2022-08-25T09:54:04;25.60;50.50
44863;DHT22;30597;49.628;10.850;2022-08-25T09:56:32;25.60;50.50
44863;DHT22;30597;49.628;10.850;2022-08-25T09:59:25;25.60;50.50
44863;DHT22;30597;49.628;10.850;2022-08-25T10:01:53;25.60;50.60
44863;DHT22;30597;49.628;10.850;2022-08-25T10:04:34;25.60;50.50
44863;DHT22;30597;49.628;10.850;2022-08-25T10:07:03;25.60;50.60
44863;DHT22;30597;49.628;10.850;2022-08-25T10:09:41;25.60;50.50
44863;DHT22;30597;49.628;10.850;2022-08-25T10:12:34;25.60;50.50
44863;DHT22;30597;49.628;10.850;2022-08-25T10:17:43;25.60;50.50
44863;DHT22;30597;49.628;10.850;2022-08-25T10:22:35;25.60;50.40
44863;DHT22;30597;49.628;10.850;2022-08-25T10:25:03;25.60;50.50
44863;DHT22;30597;49.628;10.850;2022-08-25T10:32:56;25.60;50.40
44863;DHT22;30597;49.628;10.850;2022-08-25T10:35:56;25.60;50.40
44863;DHT22;30597;49.628;10.850;2022-08-25T10:44:01;25.60;50.40
44863;DHT22;30597;49.628;10.850;2022-08-25T10:46:52;25.60;50.50
44863;DHT22;30597;49.628;10.850;2022-08-25T10:49:37;25.60;50.50
44863;DHT22;30597;49.628;10.850;2022-08-25T10:52:22;25.60;50.50
44863;DHT22;30597;49.628;10.850;2022-08-25T10:55:17;25.60;50.50
44863;DHT22;30597;49.628;10.850;2022-08-25T11:00:19;25.60;50.50
44863;DHT22;30597;49.628;10.850;2022-08-25T11:02:57;25.60;50.50
44863;DHT22;30597;49.628;10.850;2022-08-25T11:05:39;25.60;50.40
44863;DHT22;30597;49.628;10.850;2022-08-25T11:08:21;25.60;50.40
44863;DHT22;30597;49.628;10.850;2022-08-25T11:11:19;25.60;50.40
44863;DHT22;30597;49.628;10.850;2022-08-25T11:13:57;25.60;50.40
44863;DHT22;30597;49.628;10.850;2022-08-25T11:19:04;25.60;50.50
44863;DHT22;30597;49.628;10.850;2022-08-25T11:24:41;25.60;50.50
44863;DHT22;30597;49.628;10.850;2022-08-25T11:27:17;25.60;50.50
44863;DHT22;30597;49.628;10.850;2022-08-25T11:29:55;25.60;50.50
44863;DHT22;30597;49.628;10.850;2022-08-25T11:32:22;25.60;50.40
44863;DHT22;30597;49.628;10.850;2022-08-25T11:34:49;25.60;50.50
44863;DHT22;30597;49.628;10.850;2022-08-25T11:37:21;25.60;50.50
44863;DHT22;30597;49.628;10.850;2022-08-25T11:42:48;25.60;50.50
44863;DHT22;30597;49.628;10.850;2022-08-25T11:48:37;25.60;50.50
44863;DHT22;30597;49.628;10.850;2022-08-25T11:51:13;25.60;50.50
44863;DHT22;30597;49.628;10.850;2022-08-25T11:57:03;25.60;50.50
44863;DHT22;30597;49.628;10.850;2022-08-25T12:05:07;25.50;50.50
44863;DHT22;30597;49.628;10.850;2022-08-25T12:10:15;25.50;50.50
44863;DHT22;30597;49.628;10.850;2022-08-25T12:15:32;25.50;50.40
44863;DHT22;30597;49.628;10.850;2022-08-25T12:23:42;25.50;50.40
44863;DHT22;30597;49.628;10.850;2022-08-25T12:26:38;25.60;50.50
44863;DHT22;30597;49.628;10.850;2022-08-25T12:29:26;25.60;50.50
44863;DHT22;30597;49.628;10.850;2022-08-25T12:37:14;25.60;50.50
44863;DHT22;30597;49.628;10.850;2022-08-25T12:47:50;25.60;50.50
44863;DHT22;30597;49.628;10.850;2022-08-25T12:50:37;25.60;50.50
44863;DHT22;30597;49.628;10.850;2022-08-25T12:53:20;25.60;50.50
44863;DHT22;30597;49.628;10.850;2022-08-25T12:55:56;25.60;50.50
44863;DHT22;30597;49.628;10.850;2022-08-25T12:58:32;25.60;51.10
44863;DHT22;30597;49.628;10.850;2022-08-25T13:04:19;25.60;50.40
44863;DHT22;30597;49.628;10.850;2022-08-25T13:15:59;25.60;50.30
44863;DHT22;30597;49.628;10.850;2022-08-25T13:18:31;25.60;50.30
44863;DHT22;30597;49.628;10.850;2022-08-25T13:21:14;25.60;50.40
44863;DHT22;30597;49.628;10.850;2022-08-25T13:23:43;25.60;50.30
44863;DHT22;30597;49.628;10.850;2022-08-25T13:26:13;25.60;50.30
44863;DHT22;30597;49.628;10.850;2022-08-25T13:28:40;25.60;50.20
44863;DHT22;30597;49.628;10.850;2022-08-25T13:31:13;25.70;50.30
44863;DHT22;30597;49.628;10.850;2022-08-25T13:33:52;25.70;50.20
44863;DHT22;30597;49.628;10.850;2022-08-25T13:36:18;25.70;50.20
44863;DHT22;30597;49.628;10.850;2022-08-25T13:39:17;25.70;50.20
44863;DHT22;30597;49.628;10.850;2022-08-25T13:41:49;25.70;50.90
44863;DHT22;30597;49.628;10.850;2022-08-25T13:44:16;25.70;50.30
44863;DHT22;30597;49.628;10.850;2022-08-25T13:46:43;25.70;50.30
44863;DHT22;30597;49.628;10.850;2022-08-25T13:49:09;25.70;50.30
44863;DHT22;30597;49.628;10.850;2022-08-25T13:51:37;25.70;50.20
44863;DHT22;30597;49.628;10.850;2022-08-25T13:54:06;25.70;50.20
44863;DHT22;30597;49.628;10.850;2022-08-25T13:56:38;25.70;50.20
44863;DHT22;30597;49.628;10.850;2022-08-25T13:59:17;25.70;50.20
44863;DHT22;30597;49.628;10.850;2022-08-25T14:01:45;25.70;50.20
44863;DHT22;30597;49.628;10.850;2022-08-25T14:07:28;25.70;50.20
44863;DHT22;30597;49.628;10.850;2022-08-25T14:09:59;25.70;50.20
44863;DHT22;30597;49.628;10.850;2022-08-25T14:12:46;25.70;50.30
44863;DHT22;30597;49.628;10.850;2022-08-25T14:15:26;25.70;50.20
44863;DHT22;30597;49.628;10.850;2022-08-25T14:18:11;25.70;50.20
44863;DHT22;30597;49.628;10.850;2022-08-25T14:20:44;25.70;50.20
44863;DHT22;30597;49.628;10.850;2022-08-25T14:23:13;25.70;50.20
44863;DHT22;30597;49.628;10.850;2022-08-25T14:25:40;25.70;50.20
44863;DHT22;30597;49.628;10.850;2022-08-25T14:28:10;25.70;50.20
44863;DHT22;30597;49.628;10.850;2022-08-25T14:30:39;25.70;50.20
44863;DHT22;30597;49.628;10.850;2022-08-25T14:33:05;25.70;50.20
44863;DHT22;30597;49.628;10.850;2022-08-25T14:35:31;25.70;50.20
44863;DHT22;30597;49.628;10.850;2022-08-25T14:37:57;25.70;50.20
44863;DHT22;30597;49.628;10.850;2022-08-25T14:40:22;25.70;50.20
44863;DHT22;30597;49.628;10.850;2022-08-25T14:42:48;25.70;50.20
44863;DHT22;30597;49.628;10.850;2022-08-25T14:45:15;25.70;50.10
44863;DHT22;30597;49.628;10.850;2022-08-25T14:47:42;25.70;50.20
44863;DHT22;30597;49.628;10.850;2022-08-25T14:50:09;25.80;50.10
44863;DHT22;30597;49.628;10.850;2022-08-25T14:52:35;25.80;50.10
44863;DHT22;30597;49.628;10.850;2022-08-25T14:55:01;25.70;50.20
44863;DHT22;30597;49.628;10.850;2022-08-25T14:57:26;25.70;50.10
44863;DHT22;30597;49.628;10.850;2022-08-25T14:59:52;25.80;50.20
44863;DHT22;30597;49.628;10.850;2022-08-25T15:02:21;25.80;50.10
44863;DHT22;30597;49.628;10.850;2022-08-25T15:04:51;25.80;50.10
44863;DHT22;30597;49.628;10.850;2022-08-25T15:07:18;25.80;50.20
44863;DHT22;30597;49.628;10.850;2022-08-25T15:10:03;25.70;50.10
44863;DHT22;30597;49.628;10.850;2022-08-25T15:12:29;25.80;50.20
44863;DHT22;30597;49.628;10.850;2022-08-25T15:14:55;25.80;50.10
44863;DHT22;30597;49.628;10.850;2022-08-25T15:17:21;25.80;50.10
44863;DHT22;30597;49.628;10.850;2022-08-25T15:19:46;25.80;50.10
44863;DHT22;30597;49.628;10.850;2022-08-25T15:22:12;25.80;50.10
44863;DHT22;30597;49.628;10.850;2022-08-25T15:24:37;25.80;50.10
44863;DHT22;30597;49.628;10.850;2022-08-25T15:27:04;25.80;50.00
44863;DHT22;30597;49.628;10.850;2022-08-25T15:29:32;25.80;50.10
44863;DHT22;30597;49.628;10.850;2022-08-25T15:32:00;25.80;50.00
44863;DHT22;30597;49.628;10.850;2022-08-25T15:34:27;25.80;50.00
44863;DHT22;30597;49.628;10.850;2022-08-25T15:36:53;25.80;50.00
44863;DHT22;30597;49.628;10.850;2022-08-25T15:39:19;25.80;50.00
44863;DHT22;30597;49.628;10.850;2022-08-25T15:41:45;25.80;50.00
44863;DHT22;30597;49.628;10.850;2022-08-25T15:44:13;25.80;50.00
44863;DHT22;30597;49.628;10.850;2022-08-25T15:46:39;25.80;50.00
44863;DHT22;30597;49.628;10.850;2022-08-25T15:49:05;25.80;50.00
44863;DHT22;30597;49.628;10.850;2022-08-25T15:51:31;25.80;50.00
44863;DHT22;30597;49.628;10.850;2022-08-25T15:53:58;25.80;50.00
44863;DHT22;30597;49.628;10.850;2022-08-25T15:56:23;25.80;50.00
44863;DHT22;30597;49.628;10.850;2022-08-25T15:58:50;25.80;49.90
44863;DHT22;30597;49.628;10.850;2022-08-25T16:01:26;25.90;50.00
44863;DHT22;30597;49.628;10.850;2022-08-25T16:03:52;25.90;50.00
44863;DHT22;30597;49.628;10.850;2022-08-25T16:06:18;25.90;50.00
44863;DHT22;30597;49.628;10.850;2022-08-25T16:08:44;25.90;50.00
44863;DHT22;30597;49.628;10.850;2022-08-25T16:11:36;25.90;49.90
44863;DHT22;30597;49.628;10.850;2022-08-25T16:14:02;25.80;50.20
44863;DHT22;30597;49.628;10.850;2022-08-25T16:16:29;25.90;51.30
44863;DHT22;30597;49.628;10.850;2022-08-25T16:18:56;25.90;53.40
44863;DHT22;30597;49.628;10.850;2022-08-25T16:21:27;26.00;54.40
44863;DHT22;30597;49.628;10.850;2022-08-25T16:23:55;26.00;54.30
44863;DHT22;30597;49.628;10.850;2022-08-25T16:26:21;26.10;54.10
44863;DHT22;30597;49.628;10.850;2022-08-25T16:28:47;26.10;54.10
44863;DHT22;30597;49.628;10.850;2022-08-25T16:31:13;26.20;54.40
44863;DHT22;30597;49.628;10.850;2022-08-25T16:33:39;26.20;54.60
44863;DHT22;30597;49.628;10.850;2022-08-25T16:36:17;26.10;54.70
44863;DHT22;30597;49.628;10.850;2022-08-25T16:38:43;26.20;54.90
44863;DHT22;30597;49.628;10.850;2022-08-25T16:41:12;26.20;55.20
44863;DHT22;30597;49.628;10.850;2022-08-25T16:43:38;26.20;55.20
44863;DHT22;30597;49.628;10.850;2022-08-25T16:46:06;26.30;55.10
44863;DHT22;30597;49.628;10.850;2022-08-25T16:48:32;26.40;54.90
44863;DHT22;30597;49.628;10.850;2022-08-25T16:50:58;26.50;54.60
44863;DHT22;30597;49.628;10.850;2022-08-25T16:53:24;26.50;54.20
44863;DHT22;30597;49.628;10.850;2022-08-25T16:56:09;26.60;53.70
44863;DHT22;30597;49.628;10.850;2022-08-25T16:58:35;26.60;53.70
44863;DHT22;30597;49.628;10.850;2022-08-25T17:01:11;26.60;53.70
44863;DHT22;30597;49.628;10.850;2022-08-25T17:03:38;26.70;53.50
44863;DHT22;30597;49.628;10.850;2022-08-25T17:06:05;26.70;53.50
44863;DHT22;30597;49.628;10.850;2022-08-25T17:08:31;26.70;53.40